Terminal Aerodrome Forecast
Issued by NWS North Platte, NE

Home | Current Version | Previous Version | Text Only | Print | Product List | Glossary On
Versions: 1 2 3 4 5 6 7 8 9 10 11 12
000
FTUS43 KLBF 240300 AAA
TAFVTN
TAF AMD
KVTN 240322Z 2403/2424 33012G22KT P6SM OVC017
      TEMPO 2404/2406 SCT017
     FM240600 33013KT P6SM SCT017
     FM241100 28007KT P6SM BKN250=

USA.gov is the U.S. government's official web portal to all federal, state and local government web resources and services.